Airfield :
LOGIN :

Register | Disclaimer

   EN    FR    IT 

 










Legend :    VFR   Marginal VFR   IFR   Intensive IFR   Very Intensive IFR
Visi :
Ceiling :
>= 8 km
>= 3000ft
5 to 8 km
1000 to 3000 ft
1500m to 5 km
500 to 1000 ft
800 to 1500m
200 to 500 ft
< 800m
< 200 ft
Symbols :   Thunderstorms  Fog  Heavy snow  Heavy precipitations  Wind > 20 kt
SIGMETs :     Misc.  Thunderstorms  Icing  Turbulence  Mountain Waves  Volcanic Ashes







- Airport Elevation : 231 ft
- IATA code : WTN


EGXW - RAF Waddington

CURRENT METAR :
  • 200350Z AUTO 18010KT 9999 SCT033/// BKN050/// 17/16 Q1003

EXPIRED METARs :
  • 200250Z AUTO 18006KT 9999 FEW007/// BKN041/// 16/16 Q1003 RERA
  • 200150Z AUTO 17008KT 9999 FEW004/// BKN030/// 16/16 Q1004 RERA

TAF TAF EGXW
Valid from the 19 at 18:00 until the 20 at 12:00 UTC


191655Z 1918/2012 19013KT 9999 BKN010
PROB30
TEMPO 1918/1924 20018G28KT 4000 TSGS BKN018CB
BECMG 2000/2002 SCT030
PROB30
TEMPO 2008/2012 24015G25KT 7000 SHRA SCT020CB
No reported NOTAMs for that airfield.
1 SIGMET reported for the London FIR (EGTT) :
 
Embedded thunderstorms
EGTT SIGMET 01 VALID 200130/200530 EGRR
EGTT LONDON FIR EMBD TS OBS WI N5122 W00150 - N5247 E00149 - N5113 E00138 - N5010 E00011 - N5000 W00015 - N5000 W00137 - N5122 W00150 TOP FL350 MOV NE 25KT NC=



MET'MAP, your aeronautical weather chart ! - Copyright ORBIFLY December 2007 - Disclaimer

ORBIFLY MET'MAP TEAM :

Programming & Development : Alexandra Zaïnal
Concept & Development : Baudouin d'Aumeries
Co-Development & Prog : Marc-Olivier Méhu
Technical & hardware support : Manuel Goepfert

Contact : metmap@orbifly.com




SOURCES & CREDITS :

   NOAA